createdAt,value
2019-05-01T00:01:32.677Z,78.50
2019-05-01T00:04:18.471Z,77.90
2019-05-01T00:07:04.182Z,78.00
2019-05-01T00:09:31.768Z,78.00
2019-05-01T00:11:59.353Z,78.30
2019-05-01T00:14:27.746Z,79.50
2019-05-01T00:16:55.330Z,79.50
2019-05-01T00:19:22.910Z,78.70
2019-05-01T00:21:50.869Z,78.50
2019-05-01T00:24:18.450Z,78.50
2019-05-01T00:26:46.028Z,78.50
2019-05-01T00:29:13.644Z,78.70
2019-05-01T00:31:41.228Z,79.80
2019-05-01T00:34:08.812Z,79.40
2019-05-01T00:36:36.433Z,78.40
2019-05-01T00:39:04.011Z,78.30
2019-05-01T00:41:31.594Z,78.80
2019-05-01T00:43:59.224Z,79.20
2019-05-01T00:46:26.812Z,79.50
2019-05-01T00:48:54.396Z,80.00
2019-05-01T00:51:22.803Z,80.90
2019-05-01T00:53:50.387Z,80.50
2019-05-01T00:56:26.740Z,80.70
2019-05-01T00:58:57.161Z,81.10
2019-05-01T01:01:40.130Z,81.50
2019-05-01T01:04:07.722Z,81.80
2019-05-01T01:06:35.305Z,82.20
2019-05-01T01:09:02.926Z,82.60
2019-05-01T01:11:30.771Z,82.60
2019-05-01T01:13:58.370Z,82.80
2019-05-01T01:16:25.986Z,84.10
2019-05-01T01:18:53.575Z,83.30
2019-05-01T01:21:21.167Z,83.10
2019-05-01T01:23:49.557Z,82.80
2019-05-01T01:26:17.149Z,82.70
2019-05-01T01:28:44.730Z,82.70
2019-05-01T01:31:12.361Z,82.70
2019-05-01T01:33:39.942Z,82.80
2019-05-01T01:36:07.535Z,82.70
2019-05-01T01:38:35.162Z,82.60
2019-05-01T01:41:02.751Z,82.70
2019-05-01T01:43:32.973Z,83.00
2019-05-01T01:46:00.636Z,82.20
2019-05-01T01:48:28.228Z,83.10
2019-05-01T01:50:55.831Z,82.70
2019-05-01T01:53:23.456Z,82.80
2019-05-01T01:55:51.042Z,82.90
2019-05-01T01:58:18.627Z,83.40
2019-05-01T02:00:46.249Z,83.90
2019-05-01T02:03:14.610Z,85.20
2019-05-01T02:05:42.961Z,85.30
2019-05-01T02:08:10.618Z,85.70
2019-05-01T02:13:05.787Z,87.80
2019-05-01T02:15:33.407Z,86.90
2019-05-01T02:18:00.995Z,86.90
2019-05-01T02:20:28.578Z,86.80
2019-05-01T02:22:56.957Z,86.50
2019-05-01T02:25:25.317Z,86.40
2019-05-01T02:27:52.898Z,86.40
2019-05-01T02:30:21.317Z,86.50
2019-05-01T02:32:48.866Z,86.50
2019-05-01T02:35:16.445Z,86.50
2019-05-01T02:37:44.065Z,86.50
2019-05-01T02:40:30.115Z,86.50
2019-05-01T02:42:57.727Z,86.50
2019-05-01T02:45:25.325Z,86.50
2019-05-01T02:47:52.907Z,86.70
2019-05-01T02:50:20.574Z,85.90
2019-05-01T02:52:48.151Z,85.60
2019-05-01T02:55:15.737Z,85.90
2019-05-01T02:57:44.121Z,84.40
2019-05-01T03:00:11.707Z,84.40
2019-05-01T03:02:39.304Z,84.20
2019-05-01T03:05:06.916Z,84.30
2019-05-01T03:07:34.514Z,84.50
2019-05-01T03:10:02.113Z,84.90
2019-05-01T03:12:29.751Z,85.30
2019-05-01T03:14:57.342Z,85.80
2019-05-01T03:17:42.747Z,86.10
2019-05-01T03:20:28.399Z,87.30
2019-05-01T03:23:15.035Z,86.80
2019-05-01T03:25:42.611Z,86.70
2019-05-01T03:28:10.196Z,86.90
2019-05-01T03:30:38.165Z,86.90
2019-05-01T03:33:05.749Z,86.90
2019-05-01T03:35:33.358Z,86.80
2019-05-01T03:38:00.974Z,86.80
2019-05-01T03:40:28.559Z,87.00
2019-05-01T03:42:56.913Z,86.00
2019-05-01T03:45:24.539Z,86.00
2019-05-01T03:47:52.126Z,86.00
2019-05-01T03:50:19.711Z,86.00
2019-05-01T03:52:47.344Z,85.90
2019-05-01T03:55:14.924Z,86.00
2019-05-01T03:57:42.513Z,86.20
2019-05-01T04:00:19.777Z,86.40
2019-05-01T04:02:47.352Z,86.40
2019-05-01T04:05:15.712Z,86.90
2019-05-01T04:07:43.330Z,86.90
2019-05-01T04:10:10.913Z,86.90
2019-05-01T04:12:38.517Z,87.00
2019-05-01T04:15:06.918Z,87.00
2019-05-01T04:17:34.507Z,87.00
2019-05-01T04:20:02.102Z,86.80
2019-05-01T04:22:29.732Z,86.80
2019-05-01T04:24:57.307Z,86.80
2019-05-01T04:27:24.896Z,86.80
2019-05-01T04:29:52.513Z,86.70
2019-05-01T04:32:20.123Z,86.50
2019-05-01T04:34:50.683Z,86.50
2019-05-01T04:37:19.435Z,86.50
2019-05-01T04:39:47.017Z,86.50
2019-05-01T04:42:15.368Z,86.00
2019-05-01T04:44:42.993Z,85.90
2019-05-01T04:47:10.570Z,85.90
2019-05-01T04:49:38.154Z,86.10
2019-05-01T04:52:06.037Z,86.00
2019-05-01T04:54:33.617Z,86.10
2019-05-01T04:57:01.971Z,86.40
2019-05-01T04:59:29.638Z,86.40
2019-05-01T05:01:59.809Z,85.70
2019-05-01T05:04:27.385Z,86.50
2019-05-01T05:06:55.004Z,86.80
2019-05-01T05:09:41.487Z,85.90
2019-05-01T05:12:18.003Z,85.90
2019-05-01T05:16:57.817Z,86.80
2019-05-01T05:19:25.443Z,86.30
2019-05-01T05:21:53.036Z,86.30
2019-05-01T05:24:20.691Z,86.50
2019-05-01T05:26:48.306Z,86.90
2019-05-01T05:29:15.926Z,88.00
2019-05-01T05:31:43.516Z,87.20
2019-05-01T05:34:11.900Z,88.30
2019-05-01T05:36:40.251Z,87.50
2019-05-01T05:39:07.841Z,87.50
2019-05-01T05:41:36.249Z,88.00
2019-05-01T05:44:03.831Z,87.90
2019-05-01T05:46:31.418Z,87.10
2019-05-01T05:48:59.074Z,87.00
2019-05-01T05:51:26.641Z,87.20
2019-05-01T05:53:56.992Z,88.10
2019-05-01T05:56:25.423Z,87.50
2019-05-01T05:58:53.147Z,87.50
2019-05-01T06:01:39.002Z,88.70
2019-05-01T06:04:24.606Z,87.60
2019-05-01T06:06:52.241Z,87.40
2019-05-01T06:09:25.254Z,87.70
2019-05-01T06:23:29.935Z,90.00
2019-05-01T06:26:14.390Z,89.50
2019-05-01T06:28:47.270Z,90.30
2019-05-01T06:31:24.634Z,89.60
2019-05-01T06:33:53.105Z,89.50
2019-05-01T07:17:00.415Z,89.90
2019-05-01T07:19:47.192Z,89.80
2019-05-01T07:22:22.824Z,88.40
2019-05-01T07:24:49.408Z,88.30
2019-05-01T07:27:23.893Z,87.00
2019-05-01T07:29:54.037Z,86.70
2019-05-01T07:35:03.923Z,86.50
2019-05-01T07:37:31.148Z,86.00
2019-05-01T07:40:01.059Z,85.90
2019-05-01T07:42:55.368Z,85.10
2019-05-01T07:45:48.656Z,84.40
2019-05-01T07:48:41.733Z,83.60
2019-05-01T07:51:08.879Z,83.10
2019-05-01T07:53:35.803Z,82.30
2019-05-01T07:56:06.813Z,82.30
2019-05-01T07:58:34.805Z,82.20
2019-05-01T08:01:22.602Z,82.90
2019-05-01T08:03:57.824Z,82.10
2019-05-01T08:06:26.183Z,81.80
2019-05-01T08:08:53.866Z,81.60
2019-05-01T08:11:21.459Z,81.40
2019-05-01T08:13:49.821Z,81.10
2019-05-01T08:16:17.466Z,80.80
2019-05-01T08:18:45.056Z,80.50
2019-05-01T08:21:21.062Z,79.60
2019-05-01T08:23:48.253Z,78.90
2019-05-01T08:26:14.621Z,78.90
2019-05-01T08:29:03.035Z,77.90
2019-05-01T08:31:31.479Z,77.80
2019-05-01T08:34:05.037Z,77.10
2019-05-01T08:36:33.394Z,76.60
2019-05-01T08:39:04.964Z,76.30
2019-05-01T08:41:31.891Z,76.70
2019-05-01T08:43:56.978Z,76.00
2019-05-01T08:46:27.451Z,75.80
2019-05-01T08:49:06.740Z,75.40
2019-05-01T08:51:34.865Z,75.00
2019-05-01T08:53:59.698Z,74.30
2019-05-01T08:56:27.336Z,73.50
2019-05-01T08:58:55.693Z,72.80
2019-05-01T09:01:23.278Z,72.70
2019-05-01T09:03:54.213Z,71.60
2019-05-01T09:06:19.287Z,71.50
2019-05-01T09:08:46.916Z,70.10
2019-05-01T09:11:15.316Z,68.50
2019-05-01T09:13:42.917Z,68.40
2019-05-01T09:16:11.278Z,66.80
2019-05-01T09:18:38.929Z,66.80
2019-05-01T09:21:06.528Z,65.70
2019-05-01T09:23:34.631Z,64.90
2019-05-01T09:26:17.148Z,65.00
2019-05-01T09:28:47.179Z,64.20
2019-05-01T09:31:14.779Z,63.30
2019-05-01T09:33:42.427Z,62.70
2019-05-01T09:36:10.015Z,62.00
2019-05-01T09:38:38.408Z,61.10
2019-05-01T09:41:06.091Z,61.00
2019-05-01T09:43:35.611Z,60.10
2019-05-01T09:46:01.329Z,59.70
2019-05-01T09:48:28.996Z,59.40
2019-05-01T09:51:05.454Z,59.10
2019-05-01T09:53:35.826Z,59.00
2019-05-01T09:56:07.585Z,58.60
2019-05-01T09:58:31.003Z,58.50
2019-05-01T10:00:58.639Z,57.50
2019-05-01T10:03:26.234Z,56.60
2019-05-01T10:05:53.824Z,56.40
2019-05-01T10:08:21.501Z,56.00
2019-05-01T10:10:49.058Z,55.70
2019-05-01T10:13:17.667Z,55.50
2019-05-01T10:15:44.297Z,54.40
2019-05-01T10:18:12.650Z,53.10
2019-05-01T10:20:40.252Z,53.10
2019-05-01T10:23:13.170Z,52.30
2019-05-01T10:25:36.743Z,52.30
2019-05-01T10:28:07.149Z,51.90
2019-05-01T10:30:46.969Z,51.50
2019-05-01T10:33:15.322Z,51.10
2019-05-01T10:35:43.503Z,51.00
2019-05-01T10:38:10.782Z,51.20
2019-05-01T10:40:38.506Z,51.90
2019-05-01T10:43:06.097Z,52.40
2019-05-01T10:45:33.735Z,52.80
2019-05-01T10:48:01.324Z,52.50
2019-05-01T10:50:28.916Z,52.00
2019-05-01T10:52:56.817Z,51.70
2019-05-01T10:55:24.417Z,51.60
2019-05-01T10:57:52.008Z,51.50
2019-05-01T11:00:19.644Z,51.20
2019-05-01T11:02:47.998Z,51.00
2019-05-01T11:05:15.595Z,50.90
2019-05-01T11:07:44.011Z,51.00
2019-05-01T11:10:11.604Z,51.00
2019-05-01T11:12:39.196Z,50.60
2019-05-01T11:15:07.596Z,48.00
2019-05-01T11:17:35.192Z,47.90
2019-05-01T11:20:02.793Z,47.60
2019-05-01T11:22:31.203Z,47.80
2019-05-01T11:24:58.805Z,47.60
2019-05-01T11:27:26.386Z,47.10
2019-05-01T11:29:54.360Z,46.90
2019-05-01T11:32:24.546Z,46.50
2019-05-01T11:34:52.134Z,46.10
2019-05-01T11:37:22.503Z,45.70
2019-05-01T11:39:55.708Z,45.70
2019-05-01T11:42:23.293Z,46.30
2019-05-01T11:44:50.933Z,46.40
2019-05-01T11:47:18.528Z,46.10
2019-05-01T11:49:46.117Z,45.70
2019-05-01T11:52:14.210Z,45.00
2019-05-01T11:54:42.565Z,44.50
2019-05-01T11:57:10.153Z,44.40
2019-05-01T11:59:38.613Z,43.20
2019-05-01T12:02:06.206Z,43.10
2019-05-01T12:04:33.798Z,43.50
2019-05-01T12:07:01.437Z,42.10
2019-05-01T12:09:29.027Z,41.90
2019-05-01T12:11:56.631Z,42.60
2019-05-01T12:14:25.037Z,42.10
2019-05-01T12:16:52.621Z,42.10
2019-05-01T12:19:20.217Z,42.10
2019-05-01T12:21:48.164Z,42.00
2019-05-01T12:24:15.749Z,41.60
2019-05-01T12:26:43.340Z,41.40
2019-05-01T12:29:11.745Z,41.90
2019-05-01T12:31:39.341Z,41.80
2019-05-01T12:34:06.921Z,42.00
2019-05-01T12:36:36.558Z,42.30
2019-05-01T12:39:02.690Z,42.20
2019-05-01T12:41:30.275Z,42.50
2019-05-01T12:43:57.910Z,41.70
2019-05-01T12:46:40.395Z,41.60
2019-05-01T12:49:08.026Z,42.00
2019-05-01T12:51:35.617Z,42.10
2019-05-01T12:54:15.467Z,41.70
2019-05-01T12:56:58.055Z,41.60
2019-05-01T12:59:25.686Z,41.80
2019-05-01T13:01:53.283Z,41.70
2019-05-01T13:04:20.875Z,41.70
2019-05-01T13:06:49.640Z,41.50
2019-05-01T13:09:16.098Z,41.80
2019-05-01T13:11:43.687Z,41.40
2019-05-01T13:14:11.783Z,41.60
2019-05-01T13:16:39.375Z,41.10
2019-05-01T13:19:06.973Z,40.70
2019-05-01T13:21:35.393Z,39.50
2019-05-01T13:24:02.979Z,39.50
2019-05-01T13:26:30.557Z,39.70
2019-05-01T13:29:01.183Z,40.00
2019-05-01T13:31:28.772Z,40.00
2019-05-01T13:33:57.121Z,41.10
2019-05-01T13:36:24.761Z,40.40
2019-05-01T13:38:52.350Z,40.10
2019-05-01T13:41:19.950Z,39.10
2019-05-01T13:43:47.929Z,38.90
2019-05-01T13:46:15.517Z,38.70
2019-05-01T13:48:43.104Z,38.50
2019-05-01T13:51:10.735Z,38.20
2019-05-01T13:53:38.315Z,37.70
2019-05-01T13:56:05.900Z,38.40
2019-05-01T13:58:34.334Z,38.00
2019-05-01T14:01:01.929Z,38.10
2019-05-01T14:03:29.509Z,38.20
2019-05-01T14:05:57.920Z,37.40
2019-05-01T14:08:25.504Z,37.30
2019-05-01T14:10:53.088Z,37.20
2019-05-01T14:13:20.779Z,37.60
2019-05-01T14:15:48.362Z,37.50
2019-05-01T14:18:15.945Z,37.50
2019-05-01T14:20:55.657Z,37.30
2019-05-01T14:23:42.014Z,37.10
2019-05-01T14:26:09.642Z,37.00
2019-05-01T14:28:37.226Z,37.20
2019-05-01T14:31:04.813Z,37.40
2019-05-01T14:33:32.452Z,37.60
2019-05-01T14:36:00.034Z,37.80
2019-05-01T14:38:27.618Z,37.00
2019-05-01T14:40:56.031Z,37.40
2019-05-01T14:43:23.618Z,37.00
2019-05-01T14:45:51.203Z,36.70
2019-05-01T14:48:19.810Z,36.60
2019-05-01T14:50:47.399Z,36.80
2019-05-01T14:53:16.652Z,36.70
2019-05-01T14:55:45.215Z,36.60
2019-05-01T14:58:12.689Z,36.70
2019-05-01T15:00:40.264Z,36.10
2019-05-01T15:03:07.971Z,35.70
2019-05-01T15:05:36.483Z,34.60
2019-05-01T15:08:04.075Z,33.80
2019-05-01T15:10:31.729Z,33.50
2019-05-01T15:12:59.325Z,33.60
2019-05-01T15:15:39.173Z,33.20
2019-05-01T15:18:15.482Z,32.50
2019-05-01T15:20:43.069Z,32.00
2019-05-01T15:23:11.014Z,31.80
2019-05-01T15:25:38.625Z,32.00
2019-05-01T15:28:06.982Z,31.50
2019-05-01T15:30:34.615Z,31.50
2019-05-01T15:33:02.272Z,30.90
2019-05-01T15:35:30.155Z,30.90
2019-05-01T15:37:58.035Z,30.80
2019-05-01T15:40:34.343Z,30.70
2019-05-01T15:43:01.938Z,30.80
2019-05-01T15:45:29.606Z,30.40
2019-05-01T15:47:57.167Z,30.50
2019-05-01T15:50:24.770Z,31.10
2019-05-01T15:52:52.429Z,31.00
2019-05-01T15:55:20.037Z,31.10
2019-05-01T15:57:47.625Z,31.60
2019-05-01T16:00:15.267Z,31.50
2019-05-01T16:02:42.844Z,31.10
2019-05-01T16:05:10.431Z,30.40
2019-05-01T16:07:38.113Z,30.70
2019-05-01T16:10:08.614Z,30.60
2019-05-01T16:12:38.694Z,30.00
2019-05-01T16:15:06.711Z,30.00
2019-05-01T16:17:34.295Z,29.90
2019-05-01T16:20:02.657Z,30.00
2019-05-01T16:22:30.289Z,29.90
2019-05-01T16:24:59.158Z,30.10
2019-05-01T16:27:26.735Z,29.30
2019-05-01T16:29:54.371Z,29.50
2019-05-01T16:32:21.963Z,30.00
2019-05-01T16:34:49.557Z,29.90
2019-05-01T16:37:17.212Z,30.00
2019-05-01T16:39:47.650Z,30.10
2019-05-01T16:42:15.231Z,30.00
2019-05-01T16:44:43.643Z,29.80
2019-05-01T16:47:11.230Z,29.80
2019-05-01T16:49:38.813Z,30.00
2019-05-01T16:52:06.462Z,30.00
2019-05-01T16:54:34.048Z,30.10
2019-05-01T16:57:01.638Z,30.30
2019-05-01T16:59:29.266Z,30.70
2019-05-01T17:01:56.845Z,30.80
2019-05-01T17:04:37.022Z,30.90
2019-05-01T17:07:13.382Z,30.90
2019-05-01T17:09:41.371Z,31.10
2019-05-01T17:12:10.897Z,31.50
2019-05-01T17:14:36.537Z,32.00
2019-05-01T17:17:04.160Z,32.50
2019-05-01T17:19:31.746Z,32.90
2019-05-01T17:21:59.333Z,33.10
2019-05-01T17:24:26.961Z,33.40
2019-05-01T17:26:54.545Z,33.90
2019-05-01T17:29:22.126Z,34.40
2019-05-01T17:31:49.760Z,35.00
2019-05-01T17:34:17.345Z,35.20
2019-05-01T17:36:44.931Z,35.60
2019-05-01T17:39:13.325Z,36.30
2019-05-01T17:41:40.916Z,36.30
2019-05-01T17:44:08.502Z,36.60
2019-05-01T17:46:36.141Z,37.00
2019-05-01T17:49:04.307Z,37.50
2019-05-01T17:51:31.321Z,37.90
2019-05-01T17:53:58.993Z,38.00
2019-05-01T17:56:28.524Z,38.80
2019-05-01T17:58:54.177Z,38.80
2019-05-01T18:01:39.687Z,39.40
2019-05-01T18:04:19.948Z,40.60
2019-05-01T18:06:48.335Z,41.50
2019-05-01T18:09:15.916Z,41.50
2019-05-01T18:11:47.221Z,42.20
2019-05-01T18:14:11.142Z,42.90
2019-05-01T18:16:38.737Z,43.40
2019-05-01T18:19:06.341Z,43.80
2019-05-01T18:21:35.201Z,43.40
2019-05-01T18:24:23.238Z,43.40
2019-05-01T18:26:54.016Z,43.40
2019-05-01T18:29:21.611Z,44.10
2019-05-01T18:31:49.255Z,45.00
2019-05-01T18:34:16.913Z,44.40
2019-05-01T18:36:44.501Z,45.00
2019-05-01T18:39:16.615Z,45.50
2019-05-01T18:41:42.139Z,45.40
2019-05-01T18:44:11.411Z,45.60
2019-05-01T18:46:38.083Z,45.50
2019-05-01T18:49:05.726Z,45.80
2019-05-01T18:51:36.142Z,46.30
2019-05-01T18:54:00.906Z,46.30
2019-05-01T18:56:28.536Z,46.70
2019-05-01T18:58:56.124Z,47.20
2019-05-01T19:01:23.716Z,47.60
2019-05-01T19:03:51.638Z,48.10
2019-05-01T19:06:19.218Z,48.60
2019-05-01T19:08:46.818Z,49.50
2019-05-01T19:11:14.872Z,49.50
2019-05-01T19:13:42.409Z,49.70
2019-05-01T19:16:10.027Z,50.10
2019-05-01T19:18:37.691Z,50.80
2019-05-01T19:21:05.261Z,51.40
2019-05-01T19:23:33.619Z,52.70
2019-05-01T19:26:05.510Z,52.60
2019-05-01T19:28:28.847Z,52.40
2019-05-01T19:30:56.843Z,53.10
2019-05-01T19:33:24.107Z,52.90
2019-05-01T19:35:51.697Z,53.30
2019-05-01T19:38:19.320Z,53.70
2019-05-01T19:40:46.927Z,54.00
2019-05-01T19:43:14.517Z,54.40
2019-05-01T19:45:42.176Z,54.90
2019-05-01T19:48:09.816Z,55.40
2019-05-01T19:50:39.957Z,55.90
2019-05-01T19:53:05.023Z,56.70
2019-05-01T19:55:33.874Z,57.10
2019-05-01T19:58:02.316Z,57.00
2019-05-01T20:00:48.673Z,56.80
2019-05-01T20:03:16.244Z,57.70
2019-05-01T20:05:43.839Z,57.70
2019-05-01T20:08:11.483Z,57.90
2019-05-01T20:10:39.073Z,57.50
2019-05-01T20:13:07.095Z,57.80
2019-05-01T20:15:34.312Z,58.10
2019-05-01T20:18:01.900Z,58.40
2019-05-01T20:20:30.254Z,59.30
2019-05-01T20:22:58.637Z,59.30
2019-05-01T20:25:26.232Z,59.00
2019-05-01T20:27:53.821Z,59.10
2019-05-01T20:30:21.471Z,59.40
2019-05-01T20:32:49.067Z,59.70
2019-05-01T20:35:16.659Z,60.00
2019-05-01T20:37:45.067Z,60.40
2019-05-01T20:40:12.661Z,60.30
2019-05-01T20:42:40.243Z,60.70
2019-05-01T20:45:13.035Z,61.10
2019-05-01T20:47:35.826Z,61.50
2019-05-01T20:50:06.762Z,62.00
2019-05-01T20:52:35.203Z,62.00
2019-05-01T20:55:02.795Z,62.10
2019-05-01T20:57:30.382Z,62.20
2019-05-01T20:59:58.011Z,62.50
2019-05-01T21:02:26.368Z,63.30
2019-05-01T21:04:59.947Z,63.30
2019-05-01T21:07:29.413Z,63.60
2019-05-01T21:09:57.744Z,64.60
2019-05-01T21:12:22.765Z,63.90
2019-05-01T21:14:51.241Z,64.10
2019-05-01T21:17:18.827Z,64.30
2019-05-01T21:19:47.176Z,64.90
2019-05-01T21:22:14.822Z,64.90
2019-05-01T21:24:44.277Z,65.10
2019-05-01T21:27:10.771Z,66.30
2019-05-01T21:29:38.411Z,65.40
2019-05-01T21:32:06.007Z,66.10
2019-05-01T21:34:33.603Z,65.60
2019-05-01T21:37:01.996Z,66.90
2019-05-01T21:39:29.587Z,66.90
2019-05-01T21:41:57.174Z,66.30
2019-05-01T21:44:24.813Z,66.40
2019-05-01T21:46:53.479Z,66.50
2019-05-01T21:49:19.983Z,66.60
2019-05-01T21:51:48.400Z,67.20
2019-05-01T21:54:20.521Z,67.20
2019-05-01T21:56:43.567Z,67.70
2019-05-01T21:59:11.564Z,68.50
2019-05-01T22:01:39.918Z,69.60
2019-05-01T22:04:07.510Z,69.60
2019-05-01T22:06:36.165Z,69.80
2019-05-01T22:09:04.634Z,70.00
2019-05-01T22:11:32.990Z,70.20
2019-05-01T22:14:02.001Z,71.10
2019-05-01T22:16:29.008Z,72.20
2019-05-01T22:18:56.596Z,71.40
2019-05-01T22:21:42.481Z,71.60
2019-05-01T22:24:28.205Z,71.70
2019-05-01T22:27:04.378Z,72.00
2019-05-01T22:29:34.797Z,72.50
2019-05-01T22:32:17.477Z,73.40
2019-05-01T22:34:45.084Z,72.50
2019-05-01T22:37:12.682Z,72.40
2019-05-01T22:39:40.305Z,71.60
2019-05-01T22:42:07.889Z,71.90
2019-05-01T22:44:36.830Z,73.80
2019-05-01T22:47:04.454Z,73.80
2019-05-01T22:49:32.042Z,73.10
2019-05-01T22:51:59.627Z,73.70
2019-05-01T22:54:27.265Z,73.00
2019-05-01T22:56:54.857Z,73.20
2019-05-01T22:59:22.439Z,74.00
2019-05-01T23:01:53.032Z,74.50
2019-05-01T23:04:19.184Z,73.70
2019-05-01T23:06:46.778Z,73.70
2019-05-01T23:09:15.179Z,74.80
2019-05-01T23:11:42.766Z,74.80
2019-05-01T23:14:10.361Z,74.10
2019-05-01T23:16:38.011Z,74.80
2019-05-01T23:19:05.600Z,74.20
2019-05-01T23:21:33.956Z,74.50
2019-05-01T23:24:02.387Z,74.50
2019-05-01T23:26:29.167Z,74.80
2019-05-01T23:28:56.755Z,75.80
2019-05-01T23:31:25.146Z,75.70
2019-05-01T23:33:53.505Z,75.30
2019-05-01T23:36:23.871Z,76.00
2019-05-01T23:38:49.481Z,75.80
2019-05-01T23:41:17.390Z,75.80
2019-05-01T23:43:44.977Z,76.20
2019-05-01T23:46:12.607Z,76.40
2019-05-01T23:48:40.201Z,76.80
2019-05-01T23:51:07.786Z,77.40
2019-05-01T23:53:36.447Z,77.90
2019-05-01T23:56:04.043Z,77.90
2019-05-01T23:58:32.394Z,78.60
